createdAt,value
2018-05-11T00:01:32.488Z,6.33
2018-05-11T00:04:00.105Z,4.53
2018-05-11T00:06:27.727Z,5.03
2018-05-11T00:08:56.115Z,5.20
2018-05-11T00:11:24.493Z,5.00
2018-05-11T00:13:52.888Z,5.80
2018-05-11T00:16:20.518Z,5.33
2018-05-11T00:18:48.902Z,5.97
2018-05-11T00:21:17.296Z,5.57
2018-05-11T00:23:44.910Z,4.87
2018-05-11T00:26:12.538Z,5.40
2018-05-11T00:28:40.160Z,5.40
2018-05-11T00:31:08.539Z,5.40
2018-05-11T00:33:36.933Z,4.50
2018-05-11T00:36:04.567Z,4.93
2018-05-11T00:38:33.204Z,4.50
2018-05-11T00:41:00.813Z,5.20
2018-05-11T00:43:29.207Z,5.70
2018-05-11T00:45:57.588Z,5.13
2018-05-11T00:48:25.199Z,5.07
2018-05-11T00:50:52.828Z,4.70
2018-05-11T00:53:20.444Z,4.73
2018-05-11T00:55:50.704Z,4.20
2018-05-11T00:58:18.336Z,4.17
2018-05-11T01:00:46.715Z,4.47
2018-05-11T01:03:15.136Z,4.50
2018-05-11T01:05:42.766Z,4.33
2018-05-11T01:08:11.146Z,4.60
2018-05-11T01:10:39.149Z,5.07
2018-05-11T01:13:06.772Z,4.73
2018-05-11T01:15:35.152Z,4.80
2018-05-11T01:18:02.762Z,4.63
2018-05-11T01:20:30.379Z,4.50
2018-05-11T01:22:58.001Z,4.40
2018-05-11T01:25:25.637Z,4.63
2018-05-11T01:27:53.251Z,4.63
2018-05-11T01:30:20.872Z,4.50
2018-05-11T01:32:48.491Z,4.60
2018-05-11T01:35:16.124Z,4.27
2018-05-11T01:37:44.502Z,4.40
2018-05-11T01:40:12.888Z,4.17
2018-05-11T01:42:40.781Z,4.33
2018-05-11T01:45:08.857Z,4.23
2018-05-11T01:47:36.493Z,4.77
2018-05-11T01:50:04.144Z,5.50
2018-05-11T01:52:31.763Z,4.00
2018-05-11T01:54:59.397Z,4.30
2018-05-11T01:57:27.003Z,3.73
2018-05-11T01:59:55.387Z,4.33
2018-05-11T02:02:23.779Z,4.80
2018-05-11T02:04:51.400Z,3.97
2018-05-11T02:07:19.033Z,4.37
2018-05-11T02:09:46.652Z,3.93
2018-05-11T02:12:15.036Z,4.17
2018-05-11T02:14:42.644Z,4.30
2018-05-11T02:17:10.268Z,4.27
2018-05-11T02:19:37.876Z,3.70
2018-05-11T02:22:05.502Z,3.80
2018-05-11T02:24:33.120Z,3.97
2018-05-11T02:27:01.496Z,4.17
2018-05-11T02:29:29.880Z,4.50
2018-05-11T02:31:58.281Z,3.70
2018-05-11T02:34:25.904Z,3.53
2018-05-11T02:36:54.330Z,4.23
2018-05-11T02:39:21.947Z,3.97
2018-05-11T02:41:50.356Z,3.77
2018-05-11T02:44:17.965Z,4.50
2018-05-11T02:46:45.606Z,4.60
2018-05-11T02:49:13.274Z,3.67
2018-05-11T02:51:40.897Z,4.40
2018-05-11T02:54:08.527Z,3.93
2018-05-11T02:56:36.909Z,3.90
2018-05-11T02:59:05.300Z,3.87
2018-05-11T03:01:33.680Z,4.60
2018-05-11T03:04:01.300Z,4.13
2018-05-11T03:06:28.924Z,3.50
2018-05-11T03:08:56.532Z,3.83
2018-05-11T03:11:24.951Z,3.60
2018-05-11T03:13:52.560Z,3.60
2018-05-11T03:16:20.190Z,3.43
2018-05-11T03:18:47.897Z,4.33
2018-05-11T03:21:15.714Z,3.63
2018-05-11T03:23:43.352Z,3.90
2018-05-11T03:26:11.012Z,3.83
2018-05-11T03:28:38.635Z,4.03
2018-05-11T03:31:06.264Z,4.13
2018-05-11T03:33:33.893Z,3.93
2018-05-11T03:36:01.509Z,3.20
2018-05-11T03:38:29.115Z,3.63
2018-05-11T03:40:56.755Z,4.03
2018-05-11T03:43:25.128Z,3.57
2018-05-11T03:45:53.512Z,3.70
2018-05-11T03:48:21.932Z,3.87
2018-05-11T03:50:49.539Z,3.80
2018-05-11T03:53:18.280Z,4.27
2018-05-11T03:55:46.779Z,3.80
2018-05-11T03:58:14.403Z,4.63
2018-05-11T04:00:42.025Z,3.87
2018-05-11T04:03:22.180Z,3.47
2018-05-11T04:06:00.372Z,3.37
2018-05-11T04:08:39.873Z,3.97
2018-05-11T04:11:07.516Z,3.53
2018-05-11T04:13:35.124Z,4.30
2018-05-11T04:16:02.744Z,3.63
2018-05-11T04:18:30.352Z,4.07
2018-05-11T04:20:57.980Z,3.87
2018-05-11T04:23:25.607Z,3.80
2018-05-11T04:25:53.227Z,3.70
2018-05-11T04:28:20.872Z,3.83
2018-05-11T04:30:48.480Z,3.80
2018-05-11T04:33:16.860Z,3.73
2018-05-11T04:35:45.236Z,4.20
2018-05-11T04:38:13.623Z,3.43
2018-05-11T04:40:41.247Z,4.27
2018-05-11T04:43:08.904Z,3.93
2018-05-11T04:45:36.525Z,4.33
2018-05-11T04:48:04.151Z,4.53
2018-05-11T04:50:32.548Z,4.00
2018-05-11T04:53:00.156Z,4.57
2018-05-11T04:55:27.779Z,4.30
2018-05-11T04:57:55.404Z,4.20
2018-05-11T05:00:24.143Z,4.13
2018-05-11T05:02:52.100Z,4.20
2018-05-11T05:05:19.707Z,4.07
2018-05-11T05:07:47.359Z,4.50
2018-05-11T05:10:14.978Z,4.43
2018-05-11T05:12:43.364Z,4.60
2018-05-11T05:15:11.018Z,4.80
2018-05-11T05:17:38.628Z,4.17
2018-05-11T05:20:07.012Z,4.33
2018-05-11T05:22:35.411Z,4.80
2018-05-11T05:25:03.036Z,4.93
2018-05-11T05:27:31.420Z,5.27
2018-05-11T05:29:59.808Z,4.40
2018-05-11T05:32:28.192Z,4.30
2018-05-11T05:34:55.828Z,4.63
2018-05-11T05:37:23.454Z,4.83
2018-05-11T05:39:51.059Z,4.70
2018-05-11T05:42:19.457Z,4.60
2018-05-11T05:44:47.095Z,4.70
2018-05-11T05:47:15.468Z,5.07
2018-05-11T05:49:44.209Z,4.77
2018-05-11T05:52:11.827Z,4.43
2018-05-11T05:54:40.553Z,5.00
2018-05-11T05:57:08.169Z,4.73
2018-05-11T05:59:36.563Z,4.70
2018-05-11T06:02:04.188Z,4.80
2018-05-11T06:04:31.827Z,4.93
2018-05-11T06:06:59.776Z,4.53
2018-05-11T06:09:27.412Z,5.32
2018-05-11T06:11:55.030Z,5.07
2018-05-11T06:14:22.644Z,4.97
2018-05-11T06:16:50.262Z,4.60
2018-05-11T06:19:18.651Z,5.37
2018-05-11T06:21:47.287Z,5.10
2018-05-11T06:24:14.909Z,5.30
2018-05-11T06:26:42.527Z,5.30
2018-05-11T06:29:10.469Z,4.07
2018-05-11T06:31:38.088Z,5.17
2018-05-11T06:34:06.491Z,5.70
2018-05-11T06:36:34.117Z,5.43
2018-05-11T06:39:02.516Z,4.90
2018-05-11T06:41:30.136Z,5.27
2018-05-11T06:43:57.763Z,4.90
2018-05-11T06:46:25.368Z,4.73
2018-05-11T06:48:53.764Z,5.07
2018-05-11T06:51:21.387Z,4.93
2018-05-11T06:53:48.995Z,5.70
2018-05-11T06:56:17.384Z,4.67
2018-05-11T06:58:45.060Z,4.70
2018-05-11T07:01:12.716Z,5.80
2018-05-11T07:03:40.344Z,5.00
2018-05-11T07:06:08.724Z,5.40
2018-05-11T07:08:36.349Z,5.57
2018-05-11T07:11:03.968Z,5.17
2018-05-11T07:13:31.583Z,5.37
2018-05-11T07:15:59.979Z,4.73
2018-05-11T07:18:28.368Z,4.57
2018-05-11T07:20:55.984Z,5.10
2018-05-11T07:23:23.596Z,5.23
2018-05-11T07:25:51.316Z,4.80
2018-05-11T07:28:18.852Z,4.97
2018-05-11T07:30:46.508Z,4.93
2018-05-11T07:33:14.131Z,4.47
2018-05-11T07:35:42.016Z,5.10
2018-05-11T07:38:09.637Z,4.53
2018-05-11T07:40:38.028Z,5.40
2018-05-11T07:43:05.664Z,4.90
2018-05-11T07:45:34.066Z,5.57
2018-05-11T07:48:01.689Z,5.67
2018-05-11T07:50:29.346Z,5.63
2018-05-11T07:52:56.974Z,4.93
2018-05-11T07:55:24.588Z,4.90
2018-05-11T07:57:53.317Z,4.67
2018-05-11T08:00:20.923Z,4.60
2018-05-11T08:02:48.572Z,4.87
2018-05-11T08:05:16.213Z,5.27
2018-05-11T08:07:43.830Z,4.87
2018-05-11T08:10:11.453Z,5.17
2018-05-11T08:12:39.077Z,4.83
2018-05-11T08:15:06.728Z,4.23
2018-05-11T08:17:34.345Z,4.00
2018-05-11T08:20:02.764Z,4.70
2018-05-11T08:22:30.408Z,5.07
2018-05-11T08:24:58.032Z,4.70
2018-05-11T08:27:25.670Z,4.80
2018-05-11T08:29:53.280Z,4.43
2018-05-11T08:32:21.668Z,4.37
2018-05-11T08:34:49.296Z,4.53
2018-05-11T08:37:17.229Z,4.70
2018-05-11T08:39:44.859Z,4.30
2018-05-11T08:42:12.501Z,4.37
2018-05-11T08:44:40.888Z,4.37
2018-05-11T08:47:09.285Z,4.78
2018-05-11T08:49:36.931Z,4.45
2018-05-11T08:52:04.540Z,5.05
2018-05-11T08:54:32.160Z,4.40
2018-05-11T08:56:59.797Z,4.60
2018-05-11T08:59:28.180Z,4.80
2018-05-11T09:01:56.596Z,4.87
2018-05-11T09:04:24.226Z,4.25
2018-05-11T09:06:51.877Z,5.07
2018-05-11T09:09:20.267Z,4.32
2018-05-11T09:11:47.903Z,4.65
2018-05-11T09:14:15.529Z,4.40
2018-05-11T09:16:43.180Z,4.25
2018-05-11T09:19:11.783Z,4.62
2018-05-11T09:21:39.780Z,5.03
2018-05-11T09:24:08.220Z,4.87
2018-05-11T09:26:35.874Z,4.12
2018-05-11T09:29:03.508Z,4.07
2018-05-11T09:31:31.297Z,4.93
2018-05-11T09:33:58.927Z,4.93
2018-05-11T09:36:26.562Z,4.82
2018-05-11T09:38:54.940Z,4.97
2018-05-11T09:41:23.352Z,5.82
2018-05-11T09:43:50.984Z,4.60
2018-05-11T09:46:19.384Z,4.32
2018-05-11T09:48:47.273Z,4.97
2018-05-11T09:51:14.888Z,4.75
2018-05-11T09:53:42.803Z,4.57
2018-05-11T09:56:10.417Z,4.90
2018-05-11T09:58:38.833Z,4.82
2018-05-11T10:01:06.443Z,4.35
2018-05-11T10:03:34.061Z,3.93
2018-05-11T10:06:01.733Z,4.93
2018-05-11T10:08:29.364Z,4.28
2018-05-11T10:10:57.759Z,4.40
2018-05-11T10:13:25.388Z,4.72
2018-05-11T10:15:52.994Z,5.03
2018-05-11T10:18:21.414Z,6.18
2018-05-11T10:20:49.828Z,5.07
2018-05-11T10:23:17.514Z,4.97
2018-05-11T10:25:45.197Z,5.45
2018-05-11T10:28:13.591Z,5.25
2018-05-11T10:30:41.988Z,5.40
2018-05-11T10:33:09.608Z,5.15
2018-05-11T10:35:37.255Z,5.12
2018-05-11T10:38:04.904Z,4.87
2018-05-11T10:40:32.534Z,4.68
2018-05-11T10:43:00.156Z,4.95
2018-05-11T10:45:27.807Z,5.87
2018-05-11T10:47:55.436Z,6.50
2018-05-11T10:50:23.056Z,6.77
2018-05-11T10:52:51.505Z,6.60
2018-05-11T10:55:19.145Z,6.10
2018-05-11T10:57:46.789Z,6.32
2018-05-11T11:00:14.416Z,5.18
2018-05-11T11:02:42.791Z,4.80
2018-05-11T11:05:11.196Z,4.05
2018-05-11T11:07:38.817Z,4.57
2018-05-11T11:10:07.212Z,5.12
2018-05-11T11:12:35.595Z,4.80
2018-05-11T11:15:03.216Z,6.20
2018-05-11T11:17:31.673Z,6.10
2018-05-11T11:19:59.372Z,5.97
2018-05-11T11:22:27.056Z,7.33
2018-05-11T11:24:54.714Z,5.68
2018-05-11T11:27:22.336Z,5.53
2018-05-11T11:29:49.997Z,4.65
2018-05-11T11:32:17.612Z,5.35
2018-05-11T11:34:45.306Z,5.72
2018-05-11T11:37:12.904Z,5.05
2018-05-11T11:39:41.296Z,4.43
2018-05-11T11:42:08.933Z,4.57
2018-05-11T11:44:37.370Z,5.45
2018-05-11T11:47:05.016Z,5.25
2018-05-11T11:49:32.631Z,4.75
2018-05-11T11:52:01.032Z,4.62
2018-05-11T11:54:28.672Z,5.00
2018-05-11T11:56:57.072Z,4.47
2018-05-11T11:59:24.694Z,4.75
2018-05-11T12:01:52.325Z,4.78
2018-05-11T12:04:19.952Z,4.75
2018-05-11T12:06:47.580Z,4.87
2018-05-11T12:09:15.193Z,5.07
2018-05-11T12:11:42.820Z,5.20
2018-05-11T12:14:11.222Z,5.10
2018-05-11T12:16:38.843Z,4.75
2018-05-11T12:19:06.464Z,4.65
2018-05-11T12:21:34.079Z,5.25
2018-05-11T12:24:02.473Z,4.75
2018-05-11T12:26:30.093Z,5.32
2018-05-11T12:28:57.723Z,4.70
2018-05-11T12:31:25.331Z,4.85
2018-05-11T12:33:53.719Z,4.95
2018-05-11T12:36:22.108Z,4.80
2018-05-11T12:38:49.723Z,5.60
2018-05-11T12:41:17.351Z,5.15
2018-05-11T12:43:44.973Z,4.82
2018-05-11T12:46:13.447Z,4.28
2018-05-11T12:48:41.056Z,5.70
2018-05-11T12:51:08.676Z,5.15
2018-05-11T12:53:37.071Z,4.95
2018-05-11T12:56:04.708Z,5.60
2018-05-11T12:58:33.103Z,5.82
2018-05-11T13:01:00.716Z,5.55
2018-05-11T13:03:28.346Z,5.07
2018-05-11T13:05:56.313Z,5.05
2018-05-11T13:08:23.942Z,5.72
2018-05-11T13:10:52.333Z,5.60
2018-05-11T13:13:19.952Z,5.32
2018-05-11T13:15:47.580Z,5.53
2018-05-11T13:18:15.209Z,5.40
2018-05-11T13:20:42.868Z,5.32
2018-05-11T13:23:10.485Z,5.53
2018-05-11T13:25:38.340Z,5.28
2018-05-11T13:28:06.011Z,4.60
2018-05-11T13:30:33.753Z,5.32
2018-05-11T13:33:01.292Z,5.65
2018-05-11T13:35:29.169Z,5.20
2018-05-11T13:37:56.803Z,5.28
2018-05-11T13:40:24.429Z,5.47
2018-05-11T13:42:52.816Z,5.18
2018-05-11T13:45:21.201Z,7.12
2018-05-11T13:47:49.600Z,6.60
2018-05-11T13:50:17.211Z,7.37
2018-05-11T13:52:44.838Z,6.70
2018-05-11T13:55:12.810Z,6.93
2018-05-11T13:57:40.426Z,6.43
2018-05-11T14:00:08.840Z,6.60
2018-05-11T14:02:36.475Z,7.82
2018-05-11T14:05:04.112Z,7.18
2018-05-11T14:07:31.754Z,6.43
2018-05-11T14:09:59.391Z,6.70
2018-05-11T14:12:27.016Z,7.35
2018-05-11T14:14:54.651Z,7.10
2018-05-11T14:17:22.281Z,7.97
2018-05-11T14:19:49.905Z,7.25
2018-05-11T14:22:17.799Z,7.20
2018-05-11T14:24:45.416Z,6.85
2018-05-11T14:27:14.140Z,6.97
2018-05-11T14:29:41.766Z,6.95
2018-05-11T14:32:09.388Z,6.93
2018-05-11T14:34:37.087Z,6.80
2018-05-11T14:37:04.725Z,6.45
2018-05-11T14:39:32.348Z,6.30
2018-05-11T14:41:59.993Z,4.62
2018-05-11T14:44:27.872Z,4.60
2018-05-11T14:46:55.504Z,5.35
2018-05-11T14:49:23.125Z,4.93
2018-05-11T14:51:50.750Z,4.95
2018-05-11T14:54:18.368Z,5.57
2018-05-11T14:56:46.773Z,5.05
2018-05-11T14:59:14.396Z,5.55
2018-05-11T15:01:42.815Z,4.75
2018-05-11T15:04:10.486Z,4.57
2018-05-11T15:06:38.112Z,5.62
2018-05-11T15:09:05.778Z,5.43
2018-05-11T15:11:33.404Z,5.03
2018-05-11T15:14:01.037Z,5.85
2018-05-11T15:16:28.652Z,5.97
2018-05-11T15:18:56.553Z,5.07
2018-05-11T15:21:24.172Z,4.75
2018-05-11T15:23:52.560Z,5.22
2018-05-11T15:26:20.173Z,5.62
2018-05-11T15:28:47.799Z,5.20
2018-05-11T15:31:15.862Z,4.55
2018-05-11T15:33:43.444Z,5.22
2018-05-11T15:36:11.080Z,4.78
2018-05-11T15:38:38.729Z,5.00
2018-05-11T15:41:06.381Z,4.90
2018-05-11T15:43:34.781Z,5.00
2018-05-11T15:46:02.401Z,4.78
2018-05-11T15:48:30.020Z,4.43
2018-05-11T15:50:57.648Z,5.37
2018-05-11T15:53:25.265Z,4.40
2018-05-11T15:55:53.202Z,4.53
2018-05-11T15:58:21.177Z,4.78
2018-05-11T16:00:48.821Z,6.07
2018-05-11T16:03:16.444Z,5.03
2018-05-11T16:05:44.862Z,4.43
2018-05-11T16:08:12.496Z,5.15
2018-05-11T16:10:40.888Z,5.07
2018-05-11T16:13:09.096Z,4.90
2018-05-11T16:15:36.727Z,5.05
2018-05-11T16:18:04.352Z,4.37
2018-05-11T16:20:32.785Z,5.32
2018-05-11T16:23:00.400Z,5.30
2018-05-11T16:25:28.776Z,4.57
2018-05-11T16:27:57.506Z,6.55
2018-05-11T16:30:25.125Z,9.88
2018-05-11T16:32:53.552Z,9.95
2018-05-11T16:35:21.176Z,9.93
2018-05-11T16:37:48.792Z,9.60
2018-05-11T16:40:16.432Z,9.27
2018-05-11T16:42:44.059Z,8.18
2018-05-11T16:45:11.684Z,5.20
2018-05-11T16:47:39.319Z,4.85
2018-05-11T16:50:07.046Z,5.32
2018-05-11T16:52:34.634Z,5.30
2018-05-11T16:55:03.012Z,4.82
2018-05-11T16:57:30.644Z,4.45
2018-05-11T16:59:58.268Z,4.22
2018-05-11T17:02:26.654Z,4.20
2018-05-11T17:04:55.036Z,4.62
2018-05-11T17:07:23.445Z,4.87
2018-05-11T17:09:51.061Z,5.10
2018-05-11T17:12:19.456Z,4.97
2018-05-11T17:14:47.828Z,5.60
2018-05-11T17:17:16.220Z,4.67
2018-05-11T17:19:43.833Z,4.43
2018-05-11T17:22:11.484Z,5.23
2018-05-11T17:24:39.113Z,4.90
2018-05-11T17:27:06.729Z,5.20
2018-05-11T17:29:34.366Z,4.67
2018-05-11T17:32:01.991Z,4.87
2018-05-11T17:34:29.873Z,4.80
2018-05-11T17:36:57.496Z,4.47
2018-05-11T17:39:25.871Z,5.00
2018-05-11T17:41:54.260Z,4.73
2018-05-11T17:44:22.646Z,4.17
2018-05-11T17:46:50.264Z,5.97
2018-05-11T17:49:17.888Z,4.77
2018-05-11T17:51:45.500Z,4.83
2018-05-11T17:54:14.134Z,4.80
2018-05-11T17:56:41.804Z,5.53
2018-05-11T17:59:09.420Z,5.80
2018-05-11T18:01:37.052Z,5.03
2018-05-11T18:04:04.979Z,4.90
2018-05-11T18:06:32.681Z,5.40
2018-05-11T18:09:00.272Z,4.27
2018-05-11T18:11:27.899Z,5.30
2018-05-11T18:13:55.525Z,5.40
2018-05-11T18:16:23.158Z,4.70
2018-05-11T18:18:50.792Z,4.77
2018-05-11T18:21:19.180Z,5.37
2018-05-11T18:23:47.561Z,5.60
2018-05-11T18:26:15.212Z,5.17
2018-05-11T18:28:43.590Z,5.40
2018-05-11T18:31:11.975Z,5.10
2018-05-11T18:33:40.371Z,5.20
2018-05-11T18:36:08.016Z,5.40
2018-05-11T18:38:36.408Z,5.17
2018-05-11T18:41:04.040Z,5.20
2018-05-11T18:43:32.436Z,5.23
2018-05-11T18:46:00.109Z,5.57
2018-05-11T18:48:27.740Z,5.40
2018-05-11T18:50:55.389Z,5.67
2018-05-11T18:53:23.300Z,5.87
2018-05-11T18:55:50.860Z,5.40
2018-05-11T18:58:18.540Z,5.47
2018-05-11T19:00:46.194Z,6.00
2018-05-11T19:03:13.896Z,5.80
2018-05-11T19:05:41.520Z,5.57
2018-05-11T19:08:09.150Z,5.13
2018-05-11T19:10:36.776Z,5.53
2018-05-11T19:13:04.419Z,5.47
2018-05-11T19:15:32.168Z,6.70
2018-05-11T19:18:00.208Z,5.40
2018-05-11T19:20:27.862Z,5.80
2018-05-11T19:22:55.584Z,5.90
2018-05-11T19:25:23.233Z,5.33
2018-05-11T19:27:50.864Z,6.00
2018-05-11T19:30:18.637Z,6.17
2018-05-11T19:32:46.355Z,5.77
2018-05-11T19:35:14.006Z,5.90
2018-05-11T19:37:41.664Z,6.07
2018-05-11T19:40:09.296Z,6.03
2018-05-11T19:42:36.924Z,5.37
2018-05-11T19:45:04.599Z,6.47
2018-05-11T19:47:32.234Z,5.77
2018-05-11T19:49:59.856Z,5.73
2018-05-11T19:52:27.508Z,5.57
2018-05-11T19:54:55.160Z,5.60
2018-05-11T19:57:22.805Z,6.53
2018-05-11T19:59:50.428Z,5.47
2018-05-11T20:02:18.812Z,5.80
2018-05-11T20:04:46.476Z,5.70
2018-05-11T20:07:14.105Z,5.77
2018-05-11T20:09:41.745Z,7.00
2018-05-11T20:12:09.360Z,5.90
2018-05-11T20:14:36.971Z,6.10
2018-05-11T20:17:04.616Z,5.90
2018-05-11T20:19:32.248Z,5.60
2018-05-11T20:21:59.934Z,6.57
2018-05-11T20:24:27.932Z,6.27
2018-05-11T20:26:55.599Z,6.20
2018-05-11T20:29:23.224Z,6.10
2018-05-11T20:31:50.836Z,5.67
2018-05-11T20:34:19.228Z,6.07
2018-05-11T20:36:46.862Z,6.30
2018-05-11T20:39:15.252Z,5.70
2018-05-11T20:41:43.639Z,6.03
2018-05-11T20:44:11.272Z,5.50
2018-05-11T20:46:39.667Z,5.60
2018-05-11T20:49:07.310Z,5.30
2018-05-11T20:51:34.932Z,5.90
2018-05-11T20:54:02.892Z,6.50
2018-05-11T20:56:30.539Z,5.73
2018-05-11T20:58:58.166Z,5.60
2018-05-11T21:01:26.539Z,5.50
2018-05-11T21:03:54.939Z,6.13
2018-05-11T21:06:22.560Z,5.73
2018-05-11T21:08:50.183Z,6.63
2018-05-11T21:11:17.798Z,5.87
2018-05-11T21:13:46.186Z,6.10
2018-05-11T21:16:14.584Z,6.30
2018-05-11T21:18:44.349Z,5.53
2018-05-11T21:21:12.277Z,6.10
2018-05-11T21:23:39.908Z,5.50
2018-05-11T21:26:08.306Z,5.43
2018-05-11T21:28:35.933Z,5.97
2018-05-11T21:31:04.325Z,5.60
2018-05-11T21:33:32.734Z,6.13
2018-05-11T21:36:00.355Z,6.10
2018-05-11T21:38:28.752Z,5.87
2018-05-11T21:40:56.457Z,5.30
2018-05-11T21:43:24.073Z,5.90
2018-05-11T21:45:51.696Z,6.17
2018-05-11T21:48:19.308Z,5.60
2018-05-11T21:50:46.937Z,6.33
2018-05-11T21:53:15.325Z,6.23
2018-05-11T21:55:43.218Z,6.30
2018-05-11T21:58:10.836Z,5.90
2018-05-11T22:00:39.240Z,6.30
2018-05-11T22:03:06.857Z,6.23
2018-05-11T22:05:34.481Z,5.70
2018-05-11T22:08:02.097Z,6.23
2018-05-11T22:10:30.484Z,6.23
2018-05-11T22:12:58.110Z,6.03
2018-05-11T22:15:25.729Z,5.43
2018-05-11T22:17:53.336Z,6.13
2018-05-11T22:20:20.967Z,5.40
2018-05-11T22:22:48.593Z,5.70
2018-05-11T22:25:16.211Z,5.40
2018-05-11T22:27:43.840Z,6.20
2018-05-11T22:30:11.501Z,6.43
2018-05-11T22:32:39.112Z,6.00
2018-05-11T22:35:07.492Z,6.17
2018-05-11T22:37:35.880Z,6.22
2018-05-11T22:40:03.512Z,5.63
2018-05-11T22:42:31.139Z,6.10
2018-05-11T22:44:58.767Z,6.33
2018-05-11T22:47:26.380Z,5.40
2018-05-11T22:49:54.001Z,5.30
2018-05-11T22:52:21.981Z,5.10
2018-05-11T22:54:49.592Z,5.00
2018-05-11T22:57:17.971Z,5.53
2018-05-11T22:59:46.348Z,5.27
2018-05-11T23:02:14.739Z,5.23
2018-05-11T23:04:42.366Z,5.93
2018-05-11T23:07:10.500Z,5.43
2018-05-11T23:09:38.124Z,5.33
2018-05-11T23:12:06.507Z,4.93
2018-05-11T23:14:34.897Z,5.53
2018-05-11T23:17:02.532Z,5.27
2018-05-11T23:19:30.912Z,5.63
2018-05-11T23:21:59.292Z,5.50
2018-05-11T23:24:27.665Z,5.40
2018-05-11T23:26:56.056Z,5.20
2018-05-11T23:29:24.445Z,5.80
2018-05-11T23:31:52.056Z,5.30
2018-05-11T23:34:19.681Z,5.57
2018-05-11T23:36:47.304Z,5.60
2018-05-11T23:39:15.676Z,5.30
2018-05-11T23:41:44.064Z,5.67
2018-05-11T23:44:12.436Z,5.87
2018-05-11T23:46:40.820Z,5.17
2018-05-11T23:49:09.200Z,5.57
2018-05-11T23:51:37.589Z,5.00
2018-05-11T23:54:05.251Z,4.83
2018-05-11T23:56:32.867Z,5.20
2018-05-11T23:59:00.492Z,5.50
